Wilder, Idaho
Current Conditions -  °F | °C
As of 3:35 AM on Saturday 22 Nov 2014 (Local Time) from KMAN Reporting Station
Overcast Overcast  
Wind Chill: 33°   Ceiling: 6000
Heat Index: 41°   Visibility: 10mi
Dew Point: 41°   Wind: 14mph
Humidity: 100%   Direction: 120°ESE
Pressure: 29.7"   Gusts: 23mph
Location:  43.68°N, 116.91°W
Report Text: KMAN 221035Z AUTO 12012G20KT 10SM OVC060 05/05 A2970 RMK AO1
Loading
Personal Weather Stations






























Interactive Weather Map New forecast layout! Learn more

10-Day Weather Forecast

Advertisements
Track Severe Weather on mobile